JBU466 KRSW-KBOS
Flight info
| Callsign | JBU466 |
|---|---|
| Flight time | 2h 47m |
| Altitude | 33000 |
| Route | CSHEL8 VIYAP/N0453F350 Q87 JROSS ELLDE Q97 PAACK JAMIE Q133 JFK ROBUC3 |
| Aircraft | A321/M-SDE3FGHIRWY/LB1 |
Departure
| Time | 2026-05-04 14:56 |
|---|---|
| Airport | Southwest Florida International Airport (KRSW) |
Arrival
| Time | 2026-05-04 17:43 |
|---|---|
| Airport | Boston Logan International Airport (KBOS) |
| Time | Latitude | Longitude | Altitude | Speed | Heading |
|---|---|---|---|---|---|
| 2026-05-04 13:34 | 26.52889 | -81.75813 | 44 ft | 0 kts | 54° |
| 2026-05-04 14:45 | 26.52882 | -81.75824 | 43 ft | 4 kts | 57° |
| 2026-05-04 14:46 | 26.52868 | -81.75850 | 42 ft | 4 kts | 59° |
| 2026-05-04 14:46 | 26.52852 | -81.75872 | 43 ft | 3 kts | 27° |
| 2026-05-04 14:46 | 26.52863 | -81.75874 | 44 ft | 4 kts | 345° |
| 2026-05-04 14:46 | 26.52884 | -81.75892 | 43 ft | 4 kts | 318° |
| 2026-05-04 14:47 | 26.52903 | -81.75912 | 44 ft | 4 kts | 317° |
| 2026-05-04 14:47 | 26.52924 | -81.75932 | 42 ft | 4 kts | 320° |
| 2026-05-04 14:47 | 26.52943 | -81.75949 | 44 ft | 1 kts | 324° |
| 2026-05-04 14:47 | 26.52944 | -81.75949 | 44 ft | 0 kts | 324° |
| 2026-05-04 14:50 | 26.52947 | -81.75952 | 44 ft | 3 kts | 324° |
| 2026-05-04 14:50 | 26.52984 | -81.75981 | 44 ft | 9 kts | 324° |
| 2026-05-04 14:51 | 26.53036 | -81.76022 | 44 ft | 10 kts | 324° |
| 2026-05-04 14:51 | 26.53091 | -81.76068 | 44 ft | 9 kts | 322° |
| 2026-05-04 14:51 | 26.53084 | -81.76126 | 44 ft | 9 kts | 234° |
| 2026-05-04 14:51 | 26.53039 | -81.76195 | 42 ft | 14 kts | 233° |
| 2026-05-04 14:52 | 26.52980 | -81.76285 | 43 ft | 15 kts | 233° |
| 2026-05-04 14:52 | 26.52919 | -81.76379 | 43 ft | 15 kts | 234° |
| 2026-05-04 14:52 | 26.52856 | -81.76475 | 40 ft | 16 kts | 234° |
| 2026-05-04 14:52 | 26.52790 | -81.76576 | 43 ft | 16 kts | 234° |
| 2026-05-04 14:53 | 26.52725 | -81.76677 | 42 ft | 16 kts | 234° |
| 2026-05-04 14:53 | 26.52659 | -81.76778 | 44 ft | 16 kts | 234° |
| 2026-05-04 14:53 | 26.52599 | -81.76870 | 44 ft | 10 kts | 234° |
| 2026-05-04 14:53 | 26.52593 | -81.76931 | 44 ft | 8 kts | 293° |
| 2026-05-04 14:54 | 26.52627 | -81.76969 | 45 ft | 7 kts | 321° |
| 2026-05-04 14:54 | 26.52663 | -81.76976 | 45 ft | 5 kts | 43° |
| 2026-05-04 14:54 | 26.52686 | -81.76944 | 45 ft | 2 kts | 54° |
| 2026-05-04 14:54 | 26.52687 | -81.76944 | 45 ft | 0 kts | 54° |
| 2026-05-04 14:55 | 26.52689 | -81.76940 | 45 ft | 5 kts | 54° |
| 2026-05-04 14:55 | 26.52824 | -81.76732 | 43 ft | 67 kts | 54° |
| 2026-05-04 14:55 | 26.53227 | -81.76114 | 43 ft | 126 kts | 54° |
| 2026-05-04 14:55 | 26.53837 | -81.75177 | 84 ft | 167 kts | 54° |
| 2026-05-04 14:56 | 26.54521 | -81.74138 | 685 ft | 165 kts | 54° |
| 2026-05-04 14:56 | 26.55200 | -81.73106 | 1324 ft | 167 kts | 54° |
| 2026-05-04 14:56 | 26.55908 | -81.71993 | 1561 ft | 186 kts | 54° |
| 2026-05-04 14:56 | 26.56713 | -81.70750 | 1685 ft | 208 kts | 51° |
| 2026-05-04 14:57 | 26.57898 | -81.69658 | 1839 ft | 235 kts | 35° |
| 2026-05-04 14:57 | 26.59320 | -81.68653 | 2373 ft | 246 kts | 33° |
| 2026-05-04 14:57 | 26.60773 | -81.67630 | 3112 ft | 248 kts | 33° |
| 2026-05-04 14:57 | 26.62235 | -81.66587 | 3872 ft | 250 kts | 32° |
| 2026-05-04 14:58 | 26.63859 | -81.65832 | 4494 ft | 259 kts | 10° |
| 2026-05-04 14:58 | 26.65672 | -81.65953 | 5145 ft | 267 kts | 346° |
| 2026-05-04 14:58 | 26.67479 | -81.66504 | 5813 ft | 271 kts | 343° |
| 2026-05-04 14:58 | 26.69303 | -81.67079 | 6496 ft | 274 kts | 341° |
| 2026-05-04 14:59 | 26.71143 | -81.67663 | 7154 ft | 277 kts | 340° |
| 2026-05-04 14:59 | 26.73004 | -81.68252 | 7781 ft | 279 kts | 341° |
| 2026-05-04 14:59 | 26.76790 | -81.69438 | 9105 ft | 285 kts | 341° |
| 2026-05-04 15:00 | 26.78687 | -81.70029 | 9765 ft | 288 kts | 341° |
| 2026-05-04 15:00 | 26.80630 | -81.70637 | 10275 ft | 297 kts | 341° |
| 2026-05-04 15:00 | 26.82695 | -81.71289 | 10409 ft | 319 kts | 341° |
| 2026-05-04 15:01 | 26.87236 | -81.72722 | 10705 ft | 356 kts | 341° |
| 2026-05-04 15:01 | 26.89649 | -81.73473 | 11172 ft | 363 kts | 341° |
| 2026-05-04 15:01 | 26.92092 | -81.74229 | 11743 ft | 366 kts | 341° |
| 2026-05-04 15:01 | 26.94558 | -81.74994 | 12359 ft | 369 kts | 341° |
| 2026-05-04 15:02 | 26.97037 | -81.75765 | 12946 ft | 372 kts | 341° |
| 2026-05-04 15:02 | 26.99544 | -81.76548 | 13541 ft | 375 kts | 341° |
| 2026-05-04 15:02 | 27.02065 | -81.77337 | 14109 ft | 378 kts | 341° |
| 2026-05-04 15:02 | 27.04607 | -81.78133 | 14623 ft | 381 kts | 341° |
| 2026-05-04 15:03 | 27.07166 | -81.78934 | 15151 ft | 383 kts | 340° |
| 2026-05-04 15:03 | 27.09741 | -81.79743 | 15685 ft | 386 kts | 340° |
| 2026-05-04 15:03 | 27.12338 | -81.80561 | 16212 ft | 388 kts | 340° |
| 2026-05-04 15:03 | 27.14953 | -81.81383 | 16730 ft | 391 kts | 340° |
| 2026-05-04 15:04 | 27.17581 | -81.82206 | 17233 ft | 394 kts | 340° |
| 2026-05-04 15:04 | 27.20230 | -81.83036 | 17734 ft | 396 kts | 340° |
| 2026-05-04 15:04 | 27.22895 | -81.83874 | 18229 ft | 399 kts | 339° |
| 2026-05-04 15:04 | 27.25580 | -81.84717 | 18702 ft | 402 kts | 340° |
| 2026-05-04 15:05 | 27.28282 | -81.85566 | 19145 ft | 404 kts | 340° |
| 2026-05-04 15:05 | 27.30993 | -81.86419 | 19585 ft | 405 kts | 340° |
| 2026-05-04 15:05 | 27.33716 | -81.87277 | 20023 ft | 407 kts | 339° |
| 2026-05-04 15:05 | 27.36451 | -81.88139 | 20453 ft | 409 kts | 339° |
| 2026-05-04 15:06 | 27.39194 | -81.89005 | 20876 ft | 411 kts | 339° |
| 2026-05-04 15:06 | 27.41953 | -81.89876 | 21270 ft | 413 kts | 339° |
| 2026-05-04 15:06 | 27.44724 | -81.90751 | 21672 ft | 415 kts | 339° |
| 2026-05-04 15:07 | 27.50277 | -81.92513 | 22460 ft | 419 kts | 339° |
| 2026-05-04 15:07 | 27.53089 | -81.93403 | 22842 ft | 421 kts | 339° |
| 2026-05-04 15:07 | 27.55917 | -81.94292 | 23221 ft | 423 kts | 339° |
| 2026-05-04 15:07 | 27.58754 | -81.95182 | 23601 ft | 425 kts | 339° |
| 2026-05-04 15:08 | 27.61611 | -81.96082 | 23928 ft | 426 kts | 339° |
| 2026-05-04 15:08 | 27.64469 | -81.96988 | 24263 ft | 428 kts | 338° |
| 2026-05-04 15:08 | 27.67337 | -81.97901 | 24590 ft | 429 kts | 338° |
| 2026-05-04 15:08 | 27.70218 | -81.98818 | 24923 ft | 430 kts | 338° |
| 2026-05-04 15:09 | 27.73105 | -81.99733 | 25250 ft | 432 kts | 338° |
| 2026-05-04 15:09 | 27.76002 | -82.00651 | 25576 ft | 433 kts | 338° |
| 2026-05-04 15:09 | 27.78910 | -82.01573 | 25889 ft | 435 kts | 338° |
| 2026-05-04 15:10 | 27.84750 | -82.03427 | 26543 ft | 437 kts | 338° |
| 2026-05-04 15:10 | 27.87688 | -82.04361 | 26864 ft | 438 kts | 338° |
| 2026-05-04 15:10 | 27.93572 | -82.06238 | 27491 ft | 440 kts | 337° |
| 2026-05-04 15:11 | 27.96523 | -82.07180 | 27786 ft | 442 kts | 337° |
| 2026-05-04 15:11 | 27.99489 | -82.08126 | 28095 ft | 443 kts | 337° |
| 2026-05-04 15:11 | 28.02464 | -82.09076 | 28372 ft | 445 kts | 337° |
| 2026-05-04 15:11 | 28.05446 | -82.10030 | 28696 ft | 445 kts | 337° |
| 2026-05-04 15:12 | 28.08452 | -82.10877 | 29099 ft | 449 kts | 342° |
| 2026-05-04 15:12 | 28.11579 | -82.11267 | 29493 ft | 453 kts | 347° |
| 2026-05-04 15:12 | 28.14715 | -82.11559 | 29933 ft | 452 kts | 347° |
| 2026-05-04 15:12 | 28.17844 | -82.11855 | 30306 ft | 451 kts | 347° |
| 2026-05-04 15:13 | 28.20965 | -82.12152 | 30626 ft | 449 kts | 347° |
| 2026-05-04 15:13 | 28.24073 | -82.12451 | 30950 ft | 448 kts | 347° |
| 2026-05-04 15:13 | 28.27176 | -82.12751 | 31271 ft | 447 kts | 347° |
| 2026-05-04 15:13 | 28.29226 | -82.12949 | 31482 ft | 446 kts | 347° |
| 2026-05-04 15:14 | 28.32313 | -82.13249 | 31805 ft | 445 kts | 347° |
| 2026-05-04 15:14 | 28.35396 | -82.13549 | 32120 ft | 443 kts | 346° |
| 2026-05-04 15:14 | 28.39462 | -82.13943 | 32536 ft | 442 kts | 346° |
| 2026-05-04 15:14 | 28.41529 | -82.14146 | 32746 ft | 441 kts | 346° |
| 2026-05-04 15:15 | 28.44584 | -82.14439 | 33084 ft | 441 kts | 348° |
| 2026-05-04 15:15 | 28.47689 | -82.14373 | 33387 ft | 451 kts | 358° |
| 2026-05-04 15:15 | 28.50808 | -82.13692 | 33677 ft | 463 kts | 7° |
| 2026-05-04 15:16 | 28.56950 | -82.11358 | 34104 ft | 466 kts | 9° |
| 2026-05-04 15:16 | 28.59979 | -82.10194 | 34133 ft | 465 kts | 9° |
| 2026-05-04 15:17 | 28.69181 | -82.06692 | 34137 ft | 464 kts | 9° |
| 2026-05-04 15:17 | 28.78385 | -82.03191 | 34147 ft | 465 kts | 9° |
| 2026-05-04 15:18 | 28.84519 | -82.00837 | 34136 ft | 465 kts | 9° |
| 2026-05-04 15:19 | 28.93727 | -81.97317 | 34141 ft | 465 kts | 9° |
| 2026-05-04 15:19 | 29.02936 | -81.93795 | 34149 ft | 465 kts | 9° |
| 2026-05-04 15:20 | 29.09076 | -81.91439 | 34143 ft | 465 kts | 9° |
| 2026-05-04 15:20 | 29.15216 | -81.89070 | 34149 ft | 466 kts | 9° |
| 2026-05-04 15:21 | 29.21315 | -81.86715 | 34146 ft | 465 kts | 9° |
| 2026-05-04 15:22 | 29.30527 | -81.83159 | 34172 ft | 466 kts | 9° |
| 2026-05-04 15:22 | 29.39793 | -81.80498 | 34149 ft | 453 kts | 360° |
| 2026-05-04 15:23 | 29.46006 | -81.79296 | 34154 ft | 453 kts | 0° |
| 2026-05-04 15:23 | 29.52220 | -81.78086 | 34152 ft | 453 kts | 0° |
| 2026-05-04 15:24 | 29.64634 | -81.75640 | 34158 ft | 451 kts | 360° |
| 2026-05-04 15:25 | 29.70821 | -81.74425 | 34157 ft | 451 kts | 360° |
| 2026-05-04 15:26 | 29.80055 | -81.72621 | 34154 ft | 451 kts | 0° |
| 2026-05-04 15:26 | 29.89333 | -81.70777 | 34150 ft | 450 kts | 360° |
| 2026-05-04 15:27 | 29.98574 | -81.68940 | 34157 ft | 449 kts | 360° |
| 2026-05-04 15:28 | 30.07830 | -81.67122 | 34162 ft | 449 kts | 360° |
| 2026-05-04 15:29 | 30.17029 | -81.65297 | 34164 ft | 448 kts | 360° |
| 2026-05-04 15:30 | 30.38497 | -81.61022 | 34156 ft | 447 kts | 359° |
| 2026-05-04 15:31 | 30.47690 | -81.59180 | 34156 ft | 447 kts | 360° |
| 2026-05-04 15:32 | 30.63025 | -81.56110 | 34172 ft | 447 kts | 359° |
| 2026-05-04 15:34 | 30.78328 | -81.53045 | 34166 ft | 448 kts | 360° |
| 2026-05-04 15:34 | 30.87542 | -81.51181 | 34160 ft | 448 kts | 360° |
| 2026-05-04 15:35 | 30.96750 | -81.49320 | 34192 ft | 447 kts | 0° |
| 2026-05-04 15:36 | 31.05927 | -81.47473 | 34156 ft | 449 kts | 0° |
| 2026-05-04 15:36 | 31.12082 | -81.46220 | 34156 ft | 449 kts | 0° |
| 2026-05-04 15:37 | 31.18237 | -81.44972 | 34156 ft | 449 kts | 0° |
| 2026-05-04 15:37 | 31.24393 | -81.43640 | 34208 ft | 455 kts | 6° |
| 2026-05-04 15:38 | 31.27414 | -81.42391 | 34154 ft | 467 kts | 17° |
| 2026-05-04 15:38 | 31.30372 | -81.40779 | 34168 ft | 469 kts | 17° |
| 2026-05-04 15:38 | 31.36289 | -81.37565 | 34164 ft | 469 kts | 17° |
| 2026-05-04 15:39 | 31.42209 | -81.34362 | 34164 ft | 469 kts | 17° |
| 2026-05-04 15:40 | 31.51058 | -81.29560 | 34194 ft | 469 kts | 17° |
| 2026-05-04 15:40 | 31.56990 | -81.26330 | 34156 ft | 471 kts | 18° |
| 2026-05-04 15:41 | 31.62942 | -81.23085 | 34155 ft | 472 kts | 18° |
| 2026-05-04 15:41 | 31.68890 | -81.19824 | 34144 ft | 472 kts | 18° |
| 2026-05-04 15:42 | 31.74847 | -81.16579 | 34140 ft | 472 kts | 18° |
| 2026-05-04 15:42 | 31.80809 | -81.13318 | 34130 ft | 473 kts | 18° |
| 2026-05-04 15:43 | 31.86771 | -81.10043 | 34132 ft | 473 kts | 18° |
| 2026-05-04 15:43 | 31.92739 | -81.06765 | 34129 ft | 474 kts | 18° |
| 2026-05-04 15:44 | 31.98710 | -81.03477 | 34126 ft | 473 kts | 18° |
| 2026-05-04 15:44 | 32.04679 | -81.00175 | 34145 ft | 474 kts | 19° |
| 2026-05-04 15:45 | 32.10602 | -80.96866 | 34132 ft | 474 kts | 19° |
| 2026-05-04 15:45 | 32.16556 | -80.93520 | 34161 ft | 474 kts | 19° |
| 2026-05-04 15:46 | 32.22511 | -80.90160 | 34164 ft | 474 kts | 19° |
| 2026-05-04 15:46 | 32.28473 | -80.86806 | 34168 ft | 475 kts | 19° |
| 2026-05-04 15:47 | 32.34438 | -80.83459 | 34168 ft | 474 kts | 19° |
| 2026-05-04 15:47 | 32.40407 | -80.80113 | 34166 ft | 475 kts | 19° |
| 2026-05-04 15:48 | 32.46376 | -80.76747 | 34167 ft | 475 kts | 20° |
| 2026-05-04 15:48 | 32.55318 | -80.71676 | 34188 ft | 475 kts | 20° |
| 2026-05-04 15:49 | 32.61274 | -80.68303 | 34163 ft | 474 kts | 20° |
| 2026-05-04 15:49 | 32.67228 | -80.64931 | 34160 ft | 474 kts | 20° |
| 2026-05-04 15:50 | 32.72872 | -80.60766 | 34151 ft | 485 kts | 36° |
| 2026-05-04 15:50 | 32.77831 | -80.55267 | 34153 ft | 488 kts | 38° |
| 2026-05-04 15:51 | 32.82782 | -80.49755 | 34144 ft | 487 kts | 38° |
| 2026-05-04 15:51 | 32.87741 | -80.44251 | 34150 ft | 488 kts | 38° |
| 2026-05-04 15:52 | 32.92698 | -80.38744 | 34156 ft | 488 kts | 38° |
| 2026-05-04 15:52 | 32.97642 | -80.33212 | 34154 ft | 488 kts | 38° |
| 2026-05-04 15:53 | 33.02590 | -80.27668 | 34149 ft | 488 kts | 38° |
| 2026-05-04 15:53 | 33.07538 | -80.22137 | 34145 ft | 488 kts | 38° |
| 2026-05-04 15:54 | 33.12479 | -80.16587 | 34143 ft | 488 kts | 38° |
| 2026-05-04 15:54 | 33.17418 | -80.11030 | 34159 ft | 488 kts | 38° |
| 2026-05-04 15:55 | 33.22362 | -80.05465 | 34161 ft | 488 kts | 38° |
| 2026-05-04 15:55 | 33.27268 | -79.99928 | 34156 ft | 488 kts | 38° |
| 2026-05-04 15:56 | 33.32204 | -79.94349 | 34153 ft | 488 kts | 38° |
| 2026-05-04 15:56 | 33.37137 | -79.88778 | 34150 ft | 488 kts | 38° |
| 2026-05-04 15:57 | 33.42059 | -79.83193 | 34147 ft | 488 kts | 38° |
| 2026-05-04 15:57 | 33.46983 | -79.77594 | 34143 ft | 488 kts | 38° |
| 2026-05-04 15:58 | 33.51905 | -79.71999 | 34147 ft | 488 kts | 38° |
| 2026-05-04 15:58 | 33.56825 | -79.66391 | 34145 ft | 487 kts | 38° |
| 2026-05-04 15:59 | 33.61725 | -79.60796 | 34150 ft | 487 kts | 38° |
| 2026-05-04 15:59 | 33.66631 | -79.55192 | 34145 ft | 487 kts | 38° |
| 2026-05-04 16:00 | 33.71503 | -79.49620 | 34147 ft | 487 kts | 38° |
| 2026-05-04 16:00 | 33.76399 | -79.44002 | 34179 ft | 487 kts | 38° |
| 2026-05-04 16:01 | 33.81298 | -79.38376 | 34157 ft | 487 kts | 38° |
| 2026-05-04 16:01 | 33.86202 | -79.32745 | 34152 ft | 487 kts | 38° |
| 2026-05-04 16:02 | 33.91098 | -79.27105 | 34152 ft | 487 kts | 38° |
| 2026-05-04 16:03 | 33.98443 | -79.18622 | 34159 ft | 487 kts | 38° |
| 2026-05-04 16:03 | 34.03333 | -79.12959 | 34145 ft | 487 kts | 38° |
| 2026-05-04 16:04 | 34.08222 | -79.07284 | 34141 ft | 488 kts | 38° |
| 2026-05-04 16:04 | 34.15532 | -78.98796 | 34134 ft | 489 kts | 38° |
| 2026-05-04 16:05 | 34.20435 | -78.93095 | 34127 ft | 489 kts | 38° |
| 2026-05-04 16:06 | 34.27781 | -78.84538 | 34132 ft | 489 kts | 38° |
| 2026-05-04 16:07 | 34.36774 | -78.74003 | 34156 ft | 490 kts | 38° |
| 2026-05-04 16:08 | 34.47106 | -78.63568 | 34163 ft | 484 kts | 30° |
| 2026-05-04 16:09 | 34.60515 | -78.51146 | 34137 ft | 485 kts | 31° |
| 2026-05-04 16:10 | 34.71248 | -78.41191 | 34137 ft | 485 kts | 30° |
| 2026-05-04 16:11 | 34.81925 | -78.31226 | 34124 ft | 483 kts | 30° |
| 2026-05-04 16:12 | 34.97892 | -78.16290 | 34130 ft | 482 kts | 30° |
| 2026-05-04 16:13 | 35.08521 | -78.06307 | 34138 ft | 482 kts | 30° |
| 2026-05-04 16:14 | 35.19129 | -77.96286 | 34113 ft | 481 kts | 30° |
| 2026-05-04 16:16 | 35.32404 | -77.83731 | 34139 ft | 483 kts | 30° |
| 2026-05-04 16:16 | 35.40290 | -77.76241 | 34318 ft | 483 kts | 30° |
| 2026-05-04 16:17 | 35.45597 | -77.71181 | 34795 ft | 483 kts | 30° |
| 2026-05-04 16:18 | 35.53569 | -77.63573 | 35124 ft | 484 kts | 30° |
| 2026-05-04 16:18 | 35.56222 | -77.61029 | 35106 ft | 483 kts | 30° |
| 2026-05-04 16:19 | 35.69459 | -77.48351 | 35101 ft | 480 kts | 29° |
| 2026-05-04 16:20 | 35.82601 | -77.35706 | 35108 ft | 481 kts | 30° |
| 2026-05-04 16:22 | 35.95991 | -77.23429 | 35128 ft | 473 kts | 22° |
| 2026-05-04 16:23 | 36.12909 | -77.10690 | 35105 ft | 475 kts | 23° |
| 2026-05-04 16:25 | 36.29805 | -76.97869 | 35132 ft | 476 kts | 24° |
| 2026-05-04 16:26 | 36.49523 | -76.82828 | 35095 ft | 475 kts | 25° |
| 2026-05-04 16:28 | 36.63533 | -76.72070 | 35112 ft | 472 kts | 25° |
| 2026-05-04 16:29 | 36.83037 | -76.57048 | 35120 ft | 471 kts | 25° |
| 2026-05-04 16:31 | 36.96934 | -76.46275 | 35114 ft | 470 kts | 25° |
| 2026-05-04 16:32 | 37.13589 | -76.33313 | 35095 ft | 470 kts | 25° |
| 2026-05-04 16:33 | 37.24689 | -76.24634 | 35099 ft | 470 kts | 26° |
| 2026-05-04 16:34 | 37.32997 | -76.18112 | 35095 ft | 469 kts | 26° |
| 2026-05-04 16:35 | 37.49607 | -76.05025 | 35095 ft | 470 kts | 26° |
| 2026-05-04 16:36 | 37.57910 | -75.98464 | 35086 ft | 469 kts | 26° |
| 2026-05-04 16:37 | 37.66176 | -75.91818 | 35087 ft | 471 kts | 27° |
| 2026-05-04 16:38 | 37.77070 | -75.82691 | 35085 ft | 471 kts | 27° |
| 2026-05-04 16:39 | 37.90751 | -75.71324 | 35081 ft | 470 kts | 27° |
| 2026-05-04 16:40 | 38.01657 | -75.62205 | 35101 ft | 470 kts | 27° |
| 2026-05-04 16:41 | 38.15230 | -75.50807 | 35073 ft | 468 kts | 27° |
| 2026-05-04 16:43 | 38.29182 | -75.40584 | 35073 ft | 452 kts | 8° |
| 2026-05-04 16:43 | 38.38385 | -75.38507 | 35066 ft | 448 kts | 3° |
| 2026-05-04 16:45 | 38.56738 | -75.34597 | 35055 ft | 445 kts | 3° |
| 2026-05-04 16:46 | 38.72020 | -75.31336 | 35065 ft | 445 kts | 3° |
| 2026-05-04 16:47 | 38.78059 | -75.29409 | 35054 ft | 455 kts | 17° |
| 2026-05-04 16:47 | 38.83709 | -75.25567 | 35053 ft | 461 kts | 23° |
| 2026-05-04 16:48 | 38.94942 | -75.17589 | 35051 ft | 461 kts | 23° |
| 2026-05-04 16:49 | 39.06119 | -75.09626 | 35044 ft | 460 kts | 23° |
| 2026-05-04 16:50 | 39.17325 | -75.01613 | 35041 ft | 462 kts | 23° |
| 2026-05-04 16:51 | 39.25753 | -74.95546 | 35043 ft | 464 kts | 25° |
| 2026-05-04 16:52 | 39.36379 | -74.85833 | 35049 ft | 470 kts | 32° |
| 2026-05-04 16:53 | 39.44258 | -74.78300 | 35047 ft | 469 kts | 30° |
| 2026-05-04 16:54 | 39.54862 | -74.68551 | 35060 ft | 468 kts | 30° |
| 2026-05-04 16:55 | 39.69821 | -74.54598 | 35045 ft | 467 kts | 31° |
| 2026-05-04 16:56 | 39.82994 | -74.42245 | 35035 ft | 467 kts | 31° |
| 2026-05-04 16:57 | 39.90891 | -74.34832 | 35043 ft | 466 kts | 31° |
| 2026-05-04 16:58 | 40.01368 | -74.24933 | 35022 ft | 466 kts | 31° |
| 2026-05-04 17:00 | 40.17113 | -74.10001 | 35033 ft | 466 kts | 31° |
| 2026-05-04 17:01 | 40.30195 | -73.97516 | 35026 ft | 465 kts | 31° |
| 2026-05-04 17:01 | 40.35403 | -73.92534 | 34727 ft | 457 kts | 31° |
| 2026-05-04 17:02 | 40.40414 | -73.87721 | 34261 ft | 444 kts | 31° |
| 2026-05-04 17:02 | 40.45377 | -73.82959 | 33531 ft | 439 kts | 31° |
| 2026-05-04 17:03 | 40.47836 | -73.80600 | 33068 ft | 436 kts | 31° |
| 2026-05-04 17:03 | 40.50276 | -73.78256 | 32603 ft | 435 kts | 31° |
| 2026-05-04 17:03 | 40.55139 | -73.73564 | 31709 ft | 432 kts | 31° |
| 2026-05-04 17:04 | 40.59983 | -73.68882 | 30847 ft | 431 kts | 31° |
| 2026-05-04 17:04 | 40.64827 | -73.64261 | 30077 ft | 429 kts | 30° |
| 2026-05-04 17:05 | 40.69672 | -73.59677 | 29198 ft | 429 kts | 30° |
| 2026-05-04 17:05 | 40.74525 | -73.55073 | 28353 ft | 430 kts | 31° |
| 2026-05-04 17:06 | 40.79346 | -73.50467 | 27517 ft | 432 kts | 31° |
| 2026-05-04 17:06 | 40.81803 | -73.48115 | 26306 ft | 442 kts | 31° |
| 2026-05-04 17:07 | 40.86504 | -73.43069 | 26272 ft | 436 kts | 41° |
| 2026-05-04 17:07 | 40.87877 | -73.41099 | 26254 ft | 442 kts | 43° |
| 2026-05-04 17:07 | 40.90641 | -73.37054 | 25926 ft | 443 kts | 43° |
| 2026-05-04 17:07 | 40.92692 | -73.34020 | 25670 ft | 442 kts | 43° |
| 2026-05-04 17:08 | 40.94733 | -73.30984 | 25413 ft | 440 kts | 43° |
| 2026-05-04 17:08 | 40.98782 | -73.24960 | 24929 ft | 436 kts | 43° |
| 2026-05-04 17:08 | 41.00797 | -73.21966 | 24687 ft | 435 kts | 43° |
| 2026-05-04 17:09 | 41.02805 | -73.18981 | 24442 ft | 433 kts | 43° |
| 2026-05-04 17:09 | 41.04776 | -73.16050 | 24210 ft | 432 kts | 43° |
| 2026-05-04 17:09 | 41.06773 | -73.13076 | 23963 ft | 430 kts | 43° |
| 2026-05-04 17:10 | 41.10734 | -73.07170 | 23494 ft | 427 kts | 43° |
| 2026-05-04 17:10 | 41.16632 | -72.98368 | 22940 ft | 425 kts | 43° |
| 2026-05-04 17:11 | 41.18601 | -72.95421 | 22947 ft | 426 kts | 43° |
| 2026-05-04 17:11 | 41.20522 | -72.92419 | 22956 ft | 429 kts | 49° |
| 2026-05-04 17:11 | 41.23492 | -72.85465 | 22949 ft | 435 kts | 59° |
| 2026-05-04 17:12 | 41.24856 | -72.81881 | 22955 ft | 435 kts | 59° |
| 2026-05-04 17:12 | 41.27583 | -72.74754 | 22956 ft | 435 kts | 58° |
| 2026-05-04 17:13 | 41.31688 | -72.63990 | 22945 ft | 435 kts | 59° |
| 2026-05-04 17:14 | 41.35792 | -72.53202 | 22944 ft | 436 kts | 59° |
| 2026-05-04 17:14 | 41.37158 | -72.49595 | 22937 ft | 436 kts | 59° |
| 2026-05-04 17:14 | 41.39885 | -72.42375 | 22944 ft | 436 kts | 59° |
| 2026-05-04 17:15 | 41.41247 | -72.38762 | 22939 ft | 436 kts | 59° |
| 2026-05-04 17:15 | 41.43972 | -72.31530 | 22951 ft | 436 kts | 59° |
| 2026-05-04 17:16 | 41.46689 | -72.24299 | 22949 ft | 437 kts | 59° |
| 2026-05-04 17:16 | 41.50755 | -72.13366 | 22831 ft | 439 kts | 60° |
| 2026-05-04 17:17 | 41.52091 | -72.09705 | 21698 ft | 439 kts | 60° |
| 2026-05-04 17:17 | 41.55796 | -71.98810 | 20592 ft | 428 kts | 64° |
| 2026-05-04 17:18 | 41.56895 | -71.95130 | 20050 ft | 425 kts | 65° |
| 2026-05-04 17:18 | 41.59017 | -71.87805 | 19033 ft | 421 kts | 66° |
| 2026-05-04 17:19 | 41.61156 | -71.80569 | 18490 ft | 419 kts | 65° |
| 2026-05-04 17:19 | 41.63336 | -71.73355 | 17971 ft | 418 kts | 65° |
| 2026-05-04 17:20 | 41.65513 | -71.66174 | 17426 ft | 415 kts | 65° |
| 2026-05-04 17:20 | 41.67660 | -71.59030 | 16880 ft | 413 kts | 65° |
| 2026-05-04 17:20 | 41.68726 | -71.55467 | 16630 ft | 411 kts | 66° |
| 2026-05-04 17:21 | 41.70836 | -71.48388 | 15991 ft | 406 kts | 66° |
| 2026-05-04 17:21 | 41.73081 | -71.41541 | 14962 ft | 396 kts | 57° |
| 2026-05-04 17:22 | 41.74444 | -71.38357 | 14450 ft | 393 kts | 57° |
| 2026-05-04 17:22 | 41.75798 | -71.35197 | 13936 ft | 390 kts | 57° |
| 2026-05-04 17:23 | 41.79775 | -71.25883 | 12694 ft | 370 kts | 58° |
| 2026-05-04 17:23 | 41.81027 | -71.22939 | 12547 ft | 357 kts | 57° |
| 2026-05-04 17:23 | 41.83397 | -71.17350 | 12241 ft | 335 kts | 57° |
| 2026-05-04 17:24 | 41.84540 | -71.14655 | 11980 ft | 329 kts | 57° |
| 2026-05-04 17:24 | 41.87916 | -71.06783 | 11241 ft | 323 kts | 56° |
| 2026-05-04 17:25 | 41.89045 | -71.04182 | 10988 ft | 322 kts | 57° |
| 2026-05-04 17:25 | 41.91295 | -70.98993 | 10492 ft | 320 kts | 57° |
| 2026-05-04 17:26 | 41.93526 | -70.93829 | 10004 ft | 319 kts | 57° |
| 2026-05-04 17:26 | 41.96846 | -70.86097 | 9590 ft | 320 kts | 57° |
| 2026-05-04 17:27 | 41.99071 | -70.80907 | 9322 ft | 320 kts | 57° |
| 2026-05-04 17:27 | 42.01361 | -70.75862 | 9048 ft | 315 kts | 47° |
| 2026-05-04 17:28 | 42.04262 | -70.71493 | 8788 ft | 312 kts | 44° |
| 2026-05-04 17:29 | 42.08608 | -70.64977 | 8386 ft | 311 kts | 44° |
| 2026-05-04 17:29 | 42.13871 | -70.60747 | 7568 ft | 287 kts | 4° |
| 2026-05-04 17:30 | 42.19738 | -70.59138 | 6782 ft | 287 kts | 5° |
| 2026-05-04 17:31 | 42.23642 | -70.58044 | 6226 ft | 286 kts | 5° |
| 2026-05-04 17:31 | 42.29475 | -70.56409 | 5400 ft | 285 kts | 4° |
| 2026-05-04 17:32 | 42.33207 | -70.57032 | 4998 ft | 265 kts | 327° |
| 2026-05-04 17:33 | 42.37268 | -70.61704 | 5000 ft | 256 kts | 309° |
| 2026-05-04 17:33 | 42.38542 | -70.63377 | 4999 ft | 255 kts | 309° |
| 2026-05-04 17:34 | 42.42350 | -70.68370 | 4982 ft | 254 kts | 309° |
| 2026-05-04 17:34 | 42.43618 | -70.70036 | 4984 ft | 254 kts | 309° |
| 2026-05-04 17:35 | 42.47414 | -70.75044 | 4792 ft | 252 kts | 309° |
| 2026-05-04 17:35 | 42.49923 | -70.78360 | 4329 ft | 250 kts | 309° |
| 2026-05-04 17:35 | 42.51138 | -70.79957 | 4152 ft | 243 kts | 311° |
| 2026-05-04 17:36 | 42.52542 | -70.81255 | 3971 ft | 245 kts | 324° |
| 2026-05-04 17:36 | 42.54030 | -70.82302 | 3849 ft | 236 kts | 326° |
| 2026-05-04 17:36 | 42.55465 | -70.83266 | 3766 ft | 226 kts | 326° |
| 2026-05-04 17:36 | 42.56787 | -70.84275 | 3654 ft | 210 kts | 310° |
| 2026-05-04 17:37 | 42.57694 | -70.85747 | 3558 ft | 201 kts | 297° |
| 2026-05-04 17:37 | 42.58348 | -70.87338 | 3474 ft | 182 kts | 278° |
| 2026-05-04 17:37 | 42.58292 | -70.88917 | 3382 ft | 164 kts | 248° |
| 2026-05-04 17:37 | 42.57620 | -70.90132 | 3269 ft | 165 kts | 220° |
| 2026-05-04 17:38 | 42.56559 | -70.90771 | 3172 ft | 169 kts | 206° |
| 2026-05-04 17:38 | 42.55453 | -70.91304 | 3076 ft | 169 kts | 206° |
| 2026-05-04 17:38 | 42.54344 | -70.91841 | 3001 ft | 169 kts | 206° |
| 2026-05-04 17:38 | 42.53239 | -70.92378 | 2981 ft | 169 kts | 206° |
| 2026-05-04 17:39 | 42.51014 | -70.93460 | 2807 ft | 169 kts | 206° |
| 2026-05-04 17:39 | 42.49911 | -70.93997 | 2608 ft | 169 kts | 206° |
| 2026-05-04 17:39 | 42.48802 | -70.94536 | 2397 ft | 169 kts | 206° |
| 2026-05-04 17:40 | 42.47723 | -70.95059 | 2163 ft | 161 kts | 206° |
| 2026-05-04 17:40 | 42.46715 | -70.95546 | 2002 ft | 149 kts | 208° |
| 2026-05-04 17:40 | 42.45777 | -70.96000 | 1813 ft | 137 kts | 208° |
| 2026-05-04 17:40 | 42.44884 | -70.96436 | 1629 ft | 136 kts | 207° |
| 2026-05-04 17:41 | 42.43993 | -70.96870 | 1436 ft | 136 kts | 207° |
| 2026-05-04 17:41 | 42.43105 | -70.97301 | 1258 ft | 134 kts | 208° |
| 2026-05-04 17:41 | 42.42222 | -70.97730 | 1060 ft | 134 kts | 207° |
| 2026-05-04 17:41 | 42.41345 | -70.98155 | 893 ft | 136 kts | 207° |
| 2026-05-04 17:42 | 42.40448 | -70.98591 | 693 ft | 135 kts | 203° |
| 2026-05-04 17:42 | 42.39559 | -70.99017 | 514 ft | 136 kts | 205° |
| 2026-05-04 17:42 | 42.38659 | -70.99455 | 321 ft | 135 kts | 202° |
| 2026-05-04 17:42 | 42.37775 | -70.99886 | 153 ft | 135 kts | 205° |
| 2026-05-04 17:43 | 42.36905 | -71.00320 | 28 ft | 122 kts | 201° |
| 2026-05-04 17:43 | 42.36258 | -71.00626 | 25 ft | 74 kts | 199° |
| 2026-05-04 17:43 | 42.35931 | -71.00787 | 27 ft | 28 kts | 199° |
| 2026-05-04 17:43 | 42.35816 | -71.00847 | 27 ft | 10 kts | 226° |
| 2026-05-04 17:44 | 42.35814 | -71.00937 | 26 ft | 10 kts | 277° |
| 2026-05-04 17:44 | 42.35823 | -71.01034 | 25 ft | 11 kts | 277° |
| 2026-05-04 17:44 | 42.35837 | -71.01165 | 25 ft | 16 kts | 278° |
| 2026-05-04 17:44 | 42.35852 | -71.01315 | 25 ft | 17 kts | 277° |
| 2026-05-04 17:45 | 42.35869 | -71.01456 | 25 ft | 14 kts | 281° |
| 2026-05-04 17:45 | 42.35904 | -71.01535 | 27 ft | 10 kts | 345° |
| 2026-05-04 17:45 | 42.35976 | -71.01508 | 28 ft | 12 kts | 19° |
| 2026-05-04 17:45 | 42.36065 | -71.01465 | 27 ft | 15 kts | 19° |
| 2026-05-04 17:46 | 42.36167 | -71.01416 | 28 ft | 16 kts | 19° |
| 2026-05-04 17:46 | 42.36279 | -71.01361 | 27 ft | 18 kts | 20° |
| 2026-05-04 17:46 | 42.36357 | -71.01323 | 28 ft | 18 kts | 20° |
| 2026-05-04 17:46 | 42.36477 | -71.01266 | 28 ft | 18 kts | 19° |
| 2026-05-04 17:47 | 42.36595 | -71.01209 | 29 ft | 18 kts | 19° |
| 2026-05-04 17:47 | 42.36697 | -71.01160 | 28 ft | 15 kts | 19° |
| 2026-05-04 17:47 | 42.36789 | -71.01151 | 27 ft | 11 kts | 338° |
| 2026-05-04 17:47 | 42.36793 | -71.01153 | 27 ft | 0 kts | 335° |
| 2026-05-04 17:48 | 42.36808 | -71.01169 | 26 ft | 6 kts | 317° |
| 2026-05-04 17:48 | 42.36854 | -71.01234 | 26 ft | 11 kts | 315° |
| 2026-05-04 17:49 | 42.36905 | -71.01301 | 27 ft | 9 kts | 315° |
| 2026-05-04 17:49 | 42.36957 | -71.01370 | 27 ft | 12 kts | 315° |
| 2026-05-04 17:49 | 42.37024 | -71.01461 | 26 ft | 13 kts | 316° |
| 2026-05-04 17:49 | 42.37040 | -71.01538 | 30 ft | 6 kts | 253° |
| 2026-05-04 17:50 | 42.37015 | -71.01567 | 28 ft | 6 kts | 207° |
| 2026-05-04 17:50 | 42.36967 | -71.01603 | 27 ft | 8 kts | 212° |
| 2026-05-04 17:50 | 42.36922 | -71.01633 | 27 ft | 6 kts | 187° |
| 2026-05-04 17:50 | 42.36887 | -71.01616 | 28 ft | 5 kts | 152° |
| 2026-05-04 17:51 | 42.36867 | -71.01601 | 29 ft | 2 kts | 151° |
| 2026-05-04 17:51 | 42.36865 | -71.01600 | 29 ft | 0 kts | 151° |